sensor_id;sensor_type;location;lat;lon;timestamp;temperature;humidity
19544;DHT22;9917;51.256;7.152;2023-02-26T00:00:20;2.80;99.90
19544;DHT22;9917;51.256;7.152;2023-02-26T00:02:46;2.90;99.90
19544;DHT22;9917;51.256;7.152;2023-02-26T00:05:12;2.80;99.90
19544;DHT22;9917;51.256;7.152;2023-02-26T00:10:06;2.70;99.90
19544;DHT22;9917;51.256;7.152;2023-02-26T00:12:33;2.60;99.90
19544;DHT22;9917;51.256;7.152;2023-02-26T00:14:59;2.60;99.90
19544;DHT22;9917;51.256;7.152;2023-02-26T00:17:41;2.50;99.90
19544;DHT22;9917;51.256;7.152;2023-02-26T00:20:09;2.70;99.90
19544;DHT22;9917;51.256;7.152;2023-02-26T00:22:36;2.70;99.90
19544;DHT22;9917;51.256;7.152;2023-02-26T00:25:02;2.70;99.90
19544;DHT22;9917;51.256;7.152;2023-02-26T00:27:27;2.60;99.90
19544;DHT22;9917;51.256;7.152;2023-02-26T00:34:48;2.50;99.90
19544;DHT22;9917;51.256;7.152;2023-02-26T00:37:26;2.40;99.90
19544;DHT22;9917;51.256;7.152;2023-02-26T00:40:00;2.20;99.90
19544;DHT22;9917;51.256;7.152;2023-02-26T00:44:54;2.10;99.90
19544;DHT22;9917;51.256;7.152;2023-02-26T00:47:25;2.10;99.90
19544;DHT22;9917;51.256;7.152;2023-02-26T00:50:04;2.10;99.90
19544;DHT22;9917;51.256;7.152;2023-02-26T00:52:38;2.00;99.90
19544;DHT22;9917;51.256;7.152;2023-02-26T00:55:07;2.20;99.90
19544;DHT22;9917;51.256;7.152;2023-02-26T01:02:25;1.50;99.90
19544;DHT22;9917;51.256;7.152;2023-02-26T01:04:51;1.80;99.90
19544;DHT22;9917;51.256;7.152;2023-02-26T01:07:21;2.00;99.90
19544;DHT22;9917;51.256;7.152;2023-02-26T01:09:47;1.80;99.90
19544;DHT22;9917;51.256;7.152;2023-02-26T01:12:14;1.70;99.90
19544;DHT22;9917;51.256;7.152;2023-02-26T01:14:40;1.80;99.90
19544;DHT22;9917;51.256;7.152;2023-02-26T01:17:10;1.60;99.90
19544;DHT22;9917;51.256;7.152;2023-02-26T01:19:44;1.90;99.90
19544;DHT22;9917;51.256;7.152;2023-02-26T01:22:15;2.10;99.90
19544;DHT22;9917;51.256;7.152;2023-02-26T01:24:45;2.10;99.90
19544;DHT22;9917;51.256;7.152;2023-02-26T01:29:38;2.00;99.90
19544;DHT22;9917;51.256;7.152;2023-02-26T01:32:07;2.60;99.90
19544;DHT22;9917;51.256;7.152;2023-02-26T01:34:40;2.70;99.90
19544;DHT22;9917;51.256;7.152;2023-02-26T01:37:13;2.60;99.90
19544;DHT22;9917;51.256;7.152;2023-02-26T01:39:51;3.00;99.90
19544;DHT22;9917;51.256;7.152;2023-02-26T01:42:25;3.10;99.90
19544;DHT22;9917;51.256;7.152;2023-02-26T01:44:57;2.90;99.90
19544;DHT22;9917;51.256;7.152;2023-02-26T01:47:29;2.90;99.90
19544;DHT22;9917;51.256;7.152;2023-02-26T01:49:58;3.00;99.90
19544;DHT22;9917;51.256;7.152;2023-02-26T01:55:33;2.90;99.90
19544;DHT22;9917;51.256;7.152;2023-02-26T01:58:00;3.10;99.90
19544;DHT22;9917;51.256;7.152;2023-02-26T02:00:28;2.80;99.90
19544;DHT22;9917;51.256;7.152;2023-02-26T02:02:54;2.90;99.90
19544;DHT22;9917;51.256;7.152;2023-02-26T02:05:23;2.80;99.90
19544;DHT22;9917;51.256;7.152;2023-02-26T02:10:17;2.60;99.90
19544;DHT22;9917;51.256;7.152;2023-02-26T02:12:51;2.70;99.90
19544;DHT22;9917;51.256;7.152;2023-02-26T02:15:23;2.70;99.90
19544;DHT22;9917;51.256;7.152;2023-02-26T02:18:00;2.70;99.90
19544;DHT22;9917;51.256;7.152;2023-02-26T02:23:39;2.60;99.90
19544;DHT22;9917;51.256;7.152;2023-02-26T02:26:40;2.60;99.90
19544;DHT22;9917;51.256;7.152;2023-02-26T02:32:26;2.30;99.90
19544;DHT22;9917;51.256;7.152;2023-02-26T02:34:58;1.90;99.90
19544;DHT22;9917;51.256;7.152;2023-02-26T02:37:33;2.90;99.90
19544;DHT22;9917;51.256;7.152;2023-02-26T02:40:03;1.90;99.90
19544;DHT22;9917;51.256;7.152;2023-02-26T02:42:33;2.40;99.90
19544;DHT22;9917;51.256;7.152;2023-02-26T02:45:02;1.90;99.90
19544;DHT22;9917;51.256;7.152;2023-02-26T02:47:33;1.90;99.90
19544;DHT22;9917;51.256;7.152;2023-02-26T02:50:04;1.80;99.90
19544;DHT22;9917;51.256;7.152;2023-02-26T02:52:37;1.80;99.90
19544;DHT22;9917;51.256;7.152;2023-02-26T02:55:07;1.80;99.90
19544;DHT22;9917;51.256;7.152;2023-02-26T02:57:38;1.80;99.90
19544;DHT22;9917;51.256;7.152;2023-02-26T03:00:08;1.80;99.90
19544;DHT22;9917;51.256;7.152;2023-02-26T03:02:42;1.70;99.90
19544;DHT22;9917;51.256;7.152;2023-02-26T03:07:40;2.00;99.90
19544;DHT22;9917;51.256;7.152;2023-02-26T03:10:08;1.60;99.90
19544;DHT22;9917;51.256;7.152;2023-02-26T03:12:34;1.80;99.90
19544;DHT22;9917;51.256;7.152;2023-02-26T03:15:00;1.30;99.90
19544;DHT22;9917;51.256;7.152;2023-02-26T03:17:30;1.50;99.90
19544;DHT22;9917;51.256;7.152;2023-02-26T03:20:08;1.50;99.90
19544;DHT22;9917;51.256;7.152;2023-02-26T03:22:44;1.60;99.90
19544;DHT22;9917;51.256;7.152;2023-02-26T03:25:16;1.50;99.90
19544;DHT22;9917;51.256;7.152;2023-02-26T03:27:45;1.80;99.90
19544;DHT22;9917;51.256;7.152;2023-02-26T03:30:16;1.90;99.90
19544;DHT22;9917;51.256;7.152;2023-02-26T03:32:49;2.30;99.90
19544;DHT22;9917;51.256;7.152;2023-02-26T03:35:23;2.20;99.90
19544;DHT22;9917;51.256;7.152;2023-02-26T03:37:53;1.90;99.90
19544;DHT22;9917;51.256;7.152;2023-02-26T03:40:25;2.50;99.90
19544;DHT22;9917;51.256;7.152;2023-02-26T03:42:56;2.50;99.90
19544;DHT22;9917;51.256;7.152;2023-02-26T03:45:29;2.30;99.90
19544;DHT22;9917;51.256;7.152;2023-02-26T03:47:57;2.00;99.90
19544;DHT22;9917;51.256;7.152;2023-02-26T03:50:31;2.10;99.90
19544;DHT22;9917;51.256;7.152;2023-02-26T03:52:59;2.20;99.90
19544;DHT22;9917;51.256;7.152;2023-02-26T03:55:29;1.70;99.90
19544;DHT22;9917;51.256;7.152;2023-02-26T04:00:24;1.70;99.90
19544;DHT22;9917;51.256;7.152;2023-02-26T04:02:54;1.70;99.90
19544;DHT22;9917;51.256;7.152;2023-02-26T04:05:24;1.70;99.90
19544;DHT22;9917;51.256;7.152;2023-02-26T04:07:52;1.60;99.90
19544;DHT22;9917;51.256;7.152;2023-02-26T04:10:21;1.50;99.90
19544;DHT22;9917;51.256;7.152;2023-02-26T04:12:49;1.70;99.90
19544;DHT22;9917;51.256;7.152;2023-02-26T04:15:15;1.70;99.90
19544;DHT22;9917;51.256;7.152;2023-02-26T04:17:41;1.80;99.90
19544;DHT22;9917;51.256;7.152;2023-02-26T04:20:07;1.50;99.90
19544;DHT22;9917;51.256;7.152;2023-02-26T04:22:33;1.50;99.90
19544;DHT22;9917;51.256;7.152;2023-02-26T04:25:00;1.60;99.90
19544;DHT22;9917;51.256;7.152;2023-02-26T04:27:26;1.40;99.90
19544;DHT22;9917;51.256;7.152;2023-02-26T04:39:36;1.70;99.90
19544;DHT22;9917;51.256;7.152;2023-02-26T04:42:03;1.40;99.90
19544;DHT22;9917;51.256;7.152;2023-02-26T04:46:55;1.80;99.90
19544;DHT22;9917;51.256;7.152;2023-02-26T04:49:21;1.20;99.90
19544;DHT22;9917;51.256;7.152;2023-02-26T04:54:13;1.40;99.90
19544;DHT22;9917;51.256;7.152;2023-02-26T04:56:38;1.50;99.90
19544;DHT22;9917;51.256;7.152;2023-02-26T04:59:06;1.90;99.90
19544;DHT22;9917;51.256;7.152;2023-02-26T05:11:15;1.40;99.90
19544;DHT22;9917;51.256;7.152;2023-02-26T05:16:09;1.30;99.90
19544;DHT22;9917;51.256;7.152;2023-02-26T05:21:01;0.90;99.90
19544;DHT22;9917;51.256;7.152;2023-02-26T05:23:26;0.90;99.90
19544;DHT22;9917;51.256;7.152;2023-02-26T05:25:54;1.20;99.90
19544;DHT22;9917;51.256;7.152;2023-02-26T05:30:46;0.90;99.90
19544;DHT22;9917;51.256;7.152;2023-02-26T05:33:13;0.80;99.90
19544;DHT22;9917;51.256;7.152;2023-02-26T05:35:38;0.60;99.90
19544;DHT22;9917;51.256;7.152;2023-02-26T05:47:48;0.80;99.90
19544;DHT22;9917;51.256;7.152;2023-02-26T05:50:15;0.60;99.90
19544;DHT22;9917;51.256;7.152;2023-02-26T05:55:08;0.40;99.90
19544;DHT22;9917;51.256;7.152;2023-02-26T05:57:34;1.00;99.90
19544;DHT22;9917;51.256;7.152;2023-02-26T06:07:19;0.60;99.90
19544;DHT22;9917;51.256;7.152;2023-02-26T06:14:37;0.50;99.90
19544;DHT22;9917;51.256;7.152;2023-02-26T06:24:22;1.40;99.90
19544;DHT22;9917;51.256;7.152;2023-02-26T06:26:48;1.00;99.90
19544;DHT22;9917;51.256;7.152;2023-02-26T06:31:39;0.90;99.90
19544;DHT22;9917;51.256;7.152;2023-02-26T06:34:05;0.80;99.90
19544;DHT22;9917;51.256;7.152;2023-02-26T06:36:31;0.60;99.90
19544;DHT22;9917;51.256;7.152;2023-02-26T06:38:56;0.60;99.90
19544;DHT22;9917;51.256;7.152;2023-02-26T06:41:23;0.80;99.90
19544;DHT22;9917;51.256;7.152;2023-02-26T06:43:49;1.20;99.90
19544;DHT22;9917;51.256;7.152;2023-02-26T06:46:15;1.10;99.90
19544;DHT22;9917;51.256;7.152;2023-02-26T06:48:41;0.70;99.90
19544;DHT22;9917;51.256;7.152;2023-02-26T06:58:26;1.30;99.90
19544;DHT22;9917;51.256;7.152;2023-02-26T07:05:44;1.40;99.90
19544;DHT22;9917;51.256;7.152;2023-02-26T07:08:09;1.30;99.90
19544;DHT22;9917;51.256;7.152;2023-02-26T07:10:36;1.60;99.90
19544;DHT22;9917;51.256;7.152;2023-02-26T07:13:02;1.30;99.90
19544;DHT22;9917;51.256;7.152;2023-02-26T07:15:29;1.20;99.90
19544;DHT22;9917;51.256;7.152;2023-02-26T07:17:55;1.20;99.90
19544;DHT22;9917;51.256;7.152;2023-02-26T07:20:21;1.20;99.90
19544;DHT22;9917;51.256;7.152;2023-02-26T07:25:15;1.40;99.90
19544;DHT22;9917;51.256;7.152;2023-02-26T07:27:40;1.70;99.90
19544;DHT22;9917;51.256;7.152;2023-02-26T07:30:08;1.80;99.90
19544;DHT22;9917;51.256;7.152;2023-02-26T07:32:36;2.30;99.90
19544;DHT22;9917;51.256;7.152;2023-02-26T07:35:01;2.00;99.90
19544;DHT22;9917;51.256;7.152;2023-02-26T07:37:27;2.90;99.90
19544;DHT22;9917;51.256;7.152;2023-02-26T07:39:53;2.70;99.90
19544;DHT22;9917;51.256;7.152;2023-02-26T07:42:19;2.90;99.90
19544;DHT22;9917;51.256;7.152;2023-02-26T07:44:45;2.40;99.90
19544;DHT22;9917;51.256;7.152;2023-02-26T07:47:11;2.30;99.90
19544;DHT22;9917;51.256;7.152;2023-02-26T07:49:38;3.20;99.90
19544;DHT22;9917;51.256;7.152;2023-02-26T07:54:30;6.50;99.90
19544;DHT22;9917;51.256;7.152;2023-02-26T07:56:56;7.00;98.10
19544;DHT22;9917;51.256;7.152;2023-02-26T07:59:21;8.50;95.10
19544;DHT22;9917;51.256;7.152;2023-02-26T08:01:47;9.70;92.20
19544;DHT22;9917;51.256;7.152;2023-02-26T08:04:13;9.70;91.60
19544;DHT22;9917;51.256;7.152;2023-02-26T08:06:40;10.00;87.70
19544;DHT22;9917;51.256;7.152;2023-02-26T08:11:32;10.00;81.40
19544;DHT22;9917;51.256;7.152;2023-02-26T08:13:58;10.10;81.60
19544;DHT22;9917;51.256;7.152;2023-02-26T08:16:23;10.70;80.10
19544;DHT22;9917;51.256;7.152;2023-02-26T08:18:49;11.80;76.10
19544;DHT22;9917;51.256;7.152;2023-02-26T08:21:15;12.60;72.80
19544;DHT22;9917;51.256;7.152;2023-02-26T08:23:42;13.60;67.90
19544;DHT22;9917;51.256;7.152;2023-02-26T08:26:10;14.50;63.40
19544;DHT22;9917;51.256;7.152;2023-02-26T08:28:36;15.20;58.20
19544;DHT22;9917;51.256;7.152;2023-02-26T08:31:03;15.90;56.70
19544;DHT22;9917;51.256;7.152;2023-02-26T08:33:29;16.70;54.40
19544;DHT22;9917;51.256;7.152;2023-02-26T08:35:55;17.20;52.10
19544;DHT22;9917;51.256;7.152;2023-02-26T08:38:20;18.70;47.00
19544;DHT22;9917;51.256;7.152;2023-02-26T08:40:49;18.50;47.30
19544;DHT22;9917;51.256;7.152;2023-02-26T08:43:15;16.60;46.40
19544;DHT22;9917;51.256;7.152;2023-02-26T08:45:40;16.70;46.90
19544;DHT22;9917;51.256;7.152;2023-02-26T08:48:07;16.00;47.90
19544;DHT22;9917;51.256;7.152;2023-02-26T08:50:33;15.70;50.20
19544;DHT22;9917;51.256;7.152;2023-02-26T08:52:59;15.80;48.80
19544;DHT22;9917;51.256;7.152;2023-02-26T08:55:24;16.70;46.70
19544;DHT22;9917;51.256;7.152;2023-02-26T08:57:52;17.30;46.30
19544;DHT22;9917;51.256;7.152;2023-02-26T09:00:18;17.90;45.20
19544;DHT22;9917;51.256;7.152;2023-02-26T09:02:44;18.40;43.20
19544;DHT22;9917;51.256;7.152;2023-02-26T09:05:10;17.80;43.30
19544;DHT22;9917;51.256;7.152;2023-02-26T09:07:36;17.30;43.50
19544;DHT22;9917;51.256;7.152;2023-02-26T09:12:28;16.10;46.60
19544;DHT22;9917;51.256;7.152;2023-02-26T09:14:55;16.10;46.80
19544;DHT22;9917;51.256;7.152;2023-02-26T09:17:20;16.30;46.20
19544;DHT22;9917;51.256;7.152;2023-02-26T09:22:12;17.40;44.10
19544;DHT22;9917;51.256;7.152;2023-02-26T09:24:38;17.40;44.60
19544;DHT22;9917;51.256;7.152;2023-02-26T09:27:03;17.60;42.20
19544;DHT22;9917;51.256;7.152;2023-02-26T09:29:29;17.70;42.10
19544;DHT22;9917;51.256;7.152;2023-02-26T09:31:56;14.30;46.30
19544;DHT22;9917;51.256;7.152;2023-02-26T09:34:22;13.90;47.80
19544;DHT22;9917;51.256;7.152;2023-02-26T09:39:14;13.80;47.90
19544;DHT22;9917;51.256;7.152;2023-02-26T09:41:42;13.70;49.50
19544;DHT22;9917;51.256;7.152;2023-02-26T09:44:18;13.80;49.30
19544;DHT22;9917;51.256;7.152;2023-02-26T09:46:53;14.10;49.10
19544;DHT22;9917;51.256;7.152;2023-02-26T09:49:29;14.30;48.80
19544;DHT22;9917;51.256;7.152;2023-02-26T09:51:59;14.60;46.60
19544;DHT22;9917;51.256;7.152;2023-02-26T09:54:30;13.70;46.40
19544;DHT22;9917;51.256;7.152;2023-02-26T09:56:59;12.90;48.70
19544;DHT22;9917;51.256;7.152;2023-02-26T09:59:28;12.70;49.30
19544;DHT22;9917;51.256;7.152;2023-02-26T10:01:58;13.00;48.90
19544;DHT22;9917;51.256;7.152;2023-02-26T10:04:41;12.30;48.60
19544;DHT22;9917;51.256;7.152;2023-02-26T10:07:16;13.00;48.60
19544;DHT22;9917;51.256;7.152;2023-02-26T10:09:57;12.70;48.70
19544;DHT22;9917;51.256;7.152;2023-02-26T10:12:28;13.00;49.90
19544;DHT22;9917;51.256;7.152;2023-02-26T10:14:57;13.20;49.30
19544;DHT22;9917;51.256;7.152;2023-02-26T10:17:29;13.50;47.10
19544;DHT22;9917;51.256;7.152;2023-02-26T10:20:02;13.40;46.90
19544;DHT22;9917;51.256;7.152;2023-02-26T10:22:32;13.60;47.40
19544;DHT22;9917;51.256;7.152;2023-02-26T10:25:02;14.20;48.50
19544;DHT22;9917;51.256;7.152;2023-02-26T10:27:46;16.10;44.70
19544;DHT22;9917;51.256;7.152;2023-02-26T10:30:18;18.70;42.10
19544;DHT22;9917;51.256;7.152;2023-02-26T10:32:54;21.40;39.70
19544;DHT22;9917;51.256;7.152;2023-02-26T10:35:26;23.20;35.10
19544;DHT22;9917;51.256;7.152;2023-02-26T10:37:56;24.10;32.20
19544;DHT22;9917;51.256;7.152;2023-02-26T10:40:27;23.50;32.60
19544;DHT22;9917;51.256;7.152;2023-02-26T10:42:57;24.40;32.20
19544;DHT22;9917;51.256;7.152;2023-02-26T10:45:31;24.70;32.40
19544;DHT22;9917;51.256;7.152;2023-02-26T10:48:07;24.70;29.00
19544;DHT22;9917;51.256;7.152;2023-02-26T10:50:38;24.50;30.10
19544;DHT22;9917;51.256;7.152;2023-02-26T10:53:08;23.20;30.80
19544;DHT22;9917;51.256;7.152;2023-02-26T10:55:39;22.80;39.10
19544;DHT22;9917;51.256;7.152;2023-02-26T10:58:11;23.80;31.80
19544;DHT22;9917;51.256;7.152;2023-02-26T11:00:38;23.90;30.70
19544;DHT22;9917;51.256;7.152;2023-02-26T11:03:05;24.70;30.20
19544;DHT22;9917;51.256;7.152;2023-02-26T11:05:32;25.60;29.80
19544;DHT22;9917;51.256;7.152;2023-02-26T11:08:02;26.30;33.50
19544;DHT22;9917;51.256;7.152;2023-02-26T11:10:38;25.70;30.60
19544;DHT22;9917;51.256;7.152;2023-02-26T11:13:04;25.00;30.20
19544;DHT22;9917;51.256;7.152;2023-02-26T11:15:30;24.90;30.10
19544;DHT22;9917;51.256;7.152;2023-02-26T11:17:57;26.10;28.60
19544;DHT22;9917;51.256;7.152;2023-02-26T11:20:29;27.10;28.00
19544;DHT22;9917;51.256;7.152;2023-02-26T11:22:57;27.40;26.90
19544;DHT22;9917;51.256;7.152;2023-02-26T11:25:28;27.10;26.50
19544;DHT22;9917;51.256;7.152;2023-02-26T11:27:58;26.80;26.60
19544;DHT22;9917;51.256;7.152;2023-02-26T11:30:26;26.30;26.20
19544;DHT22;9917;51.256;7.152;2023-02-26T11:32:57;25.00;26.70
19544;DHT22;9917;51.256;7.152;2023-02-26T11:35:24;24.50;27.30
19544;DHT22;9917;51.256;7.152;2023-02-26T11:37:53;24.00;27.20
19544;DHT22;9917;51.256;7.152;2023-02-26T11:40:22;24.30;27.10
19544;DHT22;9917;51.256;7.152;2023-02-26T11:42:52;23.40;28.50
19544;DHT22;9917;51.256;7.152;2023-02-26T11:45:20;23.90;27.60
19544;DHT22;9917;51.256;7.152;2023-02-26T11:47:47;23.80;26.60
19544;DHT22;9917;51.256;7.152;2023-02-26T11:50:17;23.80;27.10
19544;DHT22;9917;51.256;7.152;2023-02-26T11:52:45;22.40;27.20
19544;DHT22;9917;51.256;7.152;2023-02-26T11:55:19;21.00;28.70
19544;DHT22;9917;51.256;7.152;2023-02-26T11:57:51;19.10;30.40
19544;DHT22;9917;51.256;7.152;2023-02-26T12:00:19;18.40;30.10
19544;DHT22;9917;51.256;7.152;2023-02-26T12:02:46;18.20;32.70
19544;DHT22;9917;51.256;7.152;2023-02-26T12:05:15;18.40;33.00
19544;DHT22;9917;51.256;7.152;2023-02-26T12:07:41;17.40;32.20
19544;DHT22;9917;51.256;7.152;2023-02-26T12:10:14;17.50;33.60
19544;DHT22;9917;51.256;7.152;2023-02-26T12:12:49;16.80;33.60
19544;DHT22;9917;51.256;7.152;2023-02-26T12:15:26;17.40;33.10
19544;DHT22;9917;51.256;7.152;2023-02-26T12:18:17;18.30;33.90
19544;DHT22;9917;51.256;7.152;2023-02-26T12:20:51;17.90;32.90
19544;DHT22;9917;51.256;7.152;2023-02-26T12:23:44;16.90;33.50
19544;DHT22;9917;51.256;7.152;2023-02-26T12:26:23;16.10;35.60
19544;DHT22;9917;51.256;7.152;2023-02-26T12:29:14;15.70;35.80
19544;DHT22;9917;51.256;7.152;2023-02-26T12:38:06;18.00;34.50
19544;DHT22;9917;51.256;7.152;2023-02-26T12:41:06;20.20;32.80
19544;DHT22;9917;51.256;7.152;2023-02-26T12:43:42;22.70;30.70
19544;DHT22;9917;51.256;7.152;2023-02-26T12:46:24;23.70;29.10
19544;DHT22;9917;51.256;7.152;2023-02-26T12:49:21;23.80;29.30
19544;DHT22;9917;51.256;7.152;2023-02-26T12:52:02;24.60;27.80
19544;DHT22;9917;51.256;7.152;2023-02-26T12:54:54;24.80;26.90
19544;DHT22;9917;51.256;7.152;2023-02-26T12:57:44;23.40;28.10
19544;DHT22;9917;51.256;7.152;2023-02-26T13:00:22;23.70;28.40
19544;DHT22;9917;51.256;7.152;2023-02-26T13:03:25;24.70;27.50
19544;DHT22;9917;51.256;7.152;2023-02-26T13:06:13;24.70;25.40
19544;DHT22;9917;51.256;7.152;2023-02-26T13:08:54;23.20;27.60
19544;DHT22;9917;51.256;7.152;2023-02-26T13:11:40;22.20;28.40
19544;DHT22;9917;51.256;7.152;2023-02-26T13:14:21;22.00;30.00
19544;DHT22;9917;51.256;7.152;2023-02-26T13:17:00;23.00;28.60
19544;DHT22;9917;51.256;7.152;2023-02-26T13:19:35;23.30;27.20
19544;DHT22;9917;51.256;7.152;2023-02-26T13:22:11;24.20;26.60
19544;DHT22;9917;51.256;7.152;2023-02-26T13:24:43;24.20;26.50
19544;DHT22;9917;51.256;7.152;2023-02-26T13:27:13;24.10;27.70
19544;DHT22;9917;51.256;7.152;2023-02-26T13:29:44;24.60;27.00
19544;DHT22;9917;51.256;7.152;2023-02-26T13:32:15;25.30;26.50
19544;DHT22;9917;51.256;7.152;2023-02-26T13:34:46;25.10;25.60
19544;DHT22;9917;51.256;7.152;2023-02-26T13:37:22;24.60;25.70
19544;DHT22;9917;51.256;7.152;2023-02-26T13:39:56;23.60;26.30
19544;DHT22;9917;51.256;7.152;2023-02-26T13:42:30;24.60;25.70
19544;DHT22;9917;51.256;7.152;2023-02-26T13:45:19;24.60;26.20
19544;DHT22;9917;51.256;7.152;2023-02-26T13:47:59;25.30;26.00
19544;DHT22;9917;51.256;7.152;2023-02-26T13:50:41;25.50;26.50
19544;DHT22;9917;51.256;7.152;2023-02-26T13:53:41;25.60;25.50
19544;DHT22;9917;51.256;7.152;2023-02-26T13:56:15;25.80;25.10
19544;DHT22;9917;51.256;7.152;2023-02-26T13:58:43;26.30;25.50
19544;DHT22;9917;51.256;7.152;2023-02-26T14:01:13;26.70;25.00
19544;DHT22;9917;51.256;7.152;2023-02-26T14:03:44;26.10;24.70
19544;DHT22;9917;51.256;7.152;2023-02-26T14:09:29;26.40;24.30
19544;DHT22;9917;51.256;7.152;2023-02-26T14:12:00;26.10;23.90
19544;DHT22;9917;51.256;7.152;2023-02-26T14:14:33;25.70;24.60
19544;DHT22;9917;51.256;7.152;2023-02-26T14:17:26;25.60;26.30
19544;DHT22;9917;51.256;7.152;2023-02-26T14:20:16;24.70;25.10
19544;DHT22;9917;51.256;7.152;2023-02-26T14:22:45;22.90;25.80
19544;DHT22;9917;51.256;7.152;2023-02-26T14:25:17;22.50;27.50
19544;DHT22;9917;51.256;7.152;2023-02-26T14:27:46;22.70;27.70
19544;DHT22;9917;51.256;7.152;2023-02-26T14:30:18;22.90;26.30
19544;DHT22;9917;51.256;7.152;2023-02-26T14:32:46;22.80;27.00
19544;DHT22;9917;51.256;7.152;2023-02-26T14:35:14;21.70;27.60
19544;DHT22;9917;51.256;7.152;2023-02-26T14:37:42;19.90;29.50
19544;DHT22;9917;51.256;7.152;2023-02-26T14:40:14;19.90;29.40
19544;DHT22;9917;51.256;7.152;2023-02-26T14:42:44;19.90;30.00
19544;DHT22;9917;51.256;7.152;2023-02-26T14:45:27;20.00;28.50
19544;DHT22;9917;51.256;7.152;2023-02-26T14:47:58;18.50;29.70
19544;DHT22;9917;51.256;7.152;2023-02-26T14:50:25;17.30;30.90
19544;DHT22;9917;51.256;7.152;2023-02-26T14:53:23;17.20;32.90
19544;DHT22;9917;51.256;7.152;2023-02-26T14:56:03;17.20;32.70
19544;DHT22;9917;51.256;7.152;2023-02-26T14:58:55;16.60;33.40
19544;DHT22;9917;51.256;7.152;2023-02-26T15:01:35;16.60;32.40
19544;DHT22;9917;51.256;7.152;2023-02-26T15:09:54;17.80;31.40
19544;DHT22;9917;51.256;7.152;2023-02-26T15:12:35;16.50;31.80
19544;DHT22;9917;51.256;7.152;2023-02-26T15:15:37;15.40;34.10
19544;DHT22;9917;51.256;7.152;2023-02-26T15:18:17;13.50;39.10
19544;DHT22;9917;51.256;7.152;2023-02-26T15:20:54;12.80;38.30
19544;DHT22;9917;51.256;7.152;2023-02-26T15:23:36;12.50;38.20
19544;DHT22;9917;51.256;7.152;2023-02-26T15:26:03;12.00;40.80
19544;DHT22;9917;51.256;7.152;2023-02-26T15:28:32;11.50;39.50
19544;DHT22;9917;51.256;7.152;2023-02-26T15:31:00;11.20;40.70
19544;DHT22;9917;51.256;7.152;2023-02-26T15:33:27;11.00;42.60
19544;DHT22;9917;51.256;7.152;2023-02-26T15:35:55;10.70;42.30
19544;DHT22;9917;51.256;7.152;2023-02-26T15:38:21;10.30;42.00
19544;DHT22;9917;51.256;7.152;2023-02-26T15:40:50;10.00;43.00
19544;DHT22;9917;51.256;7.152;2023-02-26T15:43:21;10.10;44.70
19544;DHT22;9917;51.256;7.152;2023-02-26T15:45:48;9.80;44.20
19544;DHT22;9917;51.256;7.152;2023-02-26T15:48:19;9.50;43.80
19544;DHT22;9917;51.256;7.152;2023-02-26T15:50:47;9.30;44.20
19544;DHT22;9917;51.256;7.152;2023-02-26T15:53:26;9.00;48.30
19544;DHT22;9917;51.256;7.152;2023-02-26T15:55:54;8.50;47.30
19544;DHT22;9917;51.256;7.152;2023-02-26T15:58:27;8.60;47.60
19544;DHT22;9917;51.256;7.152;2023-02-26T16:03:30;8.50;48.30
19544;DHT22;9917;51.256;7.152;2023-02-26T16:05:57;8.30;47.70
19544;DHT22;9917;51.256;7.152;2023-02-26T16:08:24;8.20;48.40
19544;DHT22;9917;51.256;7.152;2023-02-26T16:10:50;8.10;48.40
19544;DHT22;9917;51.256;7.152;2023-02-26T16:13:24;8.20;51.70
19544;DHT22;9917;51.256;7.152;2023-02-26T16:15:51;8.00;49.50
19544;DHT22;9917;51.256;7.152;2023-02-26T16:18:22;10.60;50.70
19544;DHT22;9917;51.256;7.152;2023-02-26T16:20:53;7.50;48.40
19544;DHT22;9917;51.256;7.152;2023-02-26T16:23:22;7.40;49.20
19544;DHT22;9917;51.256;7.152;2023-02-26T16:25:52;7.30;50.10
19544;DHT22;9917;51.256;7.152;2023-02-26T16:28:20;7.40;50.60
19544;DHT22;9917;51.256;7.152;2023-02-26T16:30:48;7.50;51.10
19544;DHT22;9917;51.256;7.152;2023-02-26T16:33:15;7.20;50.40
19544;DHT22;9917;51.256;7.152;2023-02-26T16:35:44;7.10;49.80
19544;DHT22;9917;51.256;7.152;2023-02-26T16:38:17;7.20;50.20
19544;DHT22;9917;51.256;7.152;2023-02-26T16:40:44;6.90;51.30
19544;DHT22;9917;51.256;7.152;2023-02-26T16:43:32;7.00;51.60
19544;DHT22;9917;51.256;7.152;2023-02-26T16:46:00;6.90;51.60
19544;DHT22;9917;51.256;7.152;2023-02-26T16:48:28;6.80;51.00
19544;DHT22;9917;51.256;7.152;2023-02-26T16:51:05;6.60;52.80
19544;DHT22;9917;51.256;7.152;2023-02-26T16:53:36;6.60;52.90
19544;DHT22;9917;51.256;7.152;2023-02-26T16:56:03;6.50;52.30
19544;DHT22;9917;51.256;7.152;2023-02-26T16:58:30;6.60;54.70
19544;DHT22;9917;51.256;7.152;2023-02-26T17:01:05;6.50;54.10
19544;DHT22;9917;51.256;7.152;2023-02-26T17:03:33;6.30;53.50
19544;DHT22;9917;51.256;7.152;2023-02-26T17:06:02;6.30;55.10
19544;DHT22;9917;51.256;7.152;2023-02-26T17:08:32;6.10;55.20
19544;DHT22;9917;51.256;7.152;2023-02-26T17:11:02;5.90;55.10
19544;DHT22;9917;51.256;7.152;2023-02-26T17:13:31;5.90;54.80
19544;DHT22;9917;51.256;7.152;2023-02-26T17:16:00;5.90;55.20
19544;DHT22;9917;51.256;7.152;2023-02-26T17:18:26;5.80;55.70
19544;DHT22;9917;51.256;7.152;2023-02-26T17:20:52;5.80;56.70
19544;DHT22;9917;51.256;7.152;2023-02-26T17:23:20;5.80;56.10
19544;DHT22;9917;51.256;7.152;2023-02-26T17:25:49;5.70;56.40
19544;DHT22;9917;51.256;7.152;2023-02-26T17:28:21;5.70;56.70
19544;DHT22;9917;51.256;7.152;2023-02-26T17:30:47;5.40;55.80
19544;DHT22;9917;51.256;7.152;2023-02-26T17:33:13;5.80;56.00
19544;DHT22;9917;51.256;7.152;2023-02-26T17:35:39;5.10;56.70
19544;DHT22;9917;51.256;7.152;2023-02-26T17:40:33;5.10;57.70
19544;DHT22;9917;51.256;7.152;2023-02-26T17:42:59;5.20;56.70
19544;DHT22;9917;51.256;7.152;2023-02-26T17:45:26;5.10;57.00
19544;DHT22;9917;51.256;7.152;2023-02-26T17:47:52;5.00;56.80
19544;DHT22;9917;51.256;7.152;2023-02-26T17:50:33;5.00;57.10
19544;DHT22;9917;51.256;7.152;2023-02-26T17:53:00;5.00;57.10
19544;DHT22;9917;51.256;7.152;2023-02-26T17:55:26;5.10;57.30
19544;DHT22;9917;51.256;7.152;2023-02-26T17:57:53;5.10;57.60
19544;DHT22;9917;51.256;7.152;2023-02-26T18:00:20;5.00;56.50
19544;DHT22;9917;51.256;7.152;2023-02-26T18:02:47;5.00;57.80
19544;DHT22;9917;51.256;7.152;2023-02-26T18:05:13;4.80;57.60
19544;DHT22;9917;51.256;7.152;2023-02-26T18:10:07;4.80;57.50
19544;DHT22;9917;51.256;7.152;2023-02-26T18:12:33;4.80;58.40
19544;DHT22;9917;51.256;7.152;2023-02-26T18:14:58;4.80;58.10
19544;DHT22;9917;51.256;7.152;2023-02-26T18:17:27;4.80;58.40
19544;DHT22;9917;51.256;7.152;2023-02-26T18:19:54;4.70;59.00
19544;DHT22;9917;51.256;7.152;2023-02-26T18:22:21;4.80;59.00
19544;DHT22;9917;51.256;7.152;2023-02-26T18:24:47;4.20;58.90
19544;DHT22;9917;51.256;7.152;2023-02-26T18:27:16;4.30;59.20
19544;DHT22;9917;51.256;7.152;2023-02-26T18:29:42;4.40;59.20
19544;DHT22;9917;51.256;7.152;2023-02-26T18:32:11;4.30;59.50
19544;DHT22;9917;51.256;7.152;2023-02-26T18:34:37;4.20;60.50
19544;DHT22;9917;51.256;7.152;2023-02-26T18:37:04;4.20;60.80
19544;DHT22;9917;51.256;7.152;2023-02-26T18:39:30;4.20;61.30
19544;DHT22;9917;51.256;7.152;2023-02-26T18:41:57;4.30;61.30
19544;DHT22;9917;51.256;7.152;2023-02-26T18:44:23;4.50;61.00